Time;durP1;ratioP1;P1;durP2;ratioP2;P2;SDS_P1;SDS_P2;PMS_P1;PMS_P2;Temp;Humidity;BMP_temperature;BMP_pressure;BME280_temperature;BME280_humidity;BME280_pressure;Samples;Min_cycle;Max_cycle;Signal;HPM_P1;HPM_P2
2022/03/17 00:01:40;;;;;;;33.88;24.77;;;;;;;9.16;64.63;102151.13;4723553;29;120540;-92
2022/03/17 00:04:32;;;;;;;33.85;24.50;;;;;;;9.17;63.98;102149.16;4734370;29;119888;-92
2022/03/17 00:07:03;;;;;;;37.20;26.40;;;;;;;9.43;64.50;102199.78;4725266;29;121264;-93
2022/03/17 00:09:44;;;;;;;39.88;26.60;;;;;;;9.31;64.17;102181.13;4710899;29;121208;-90
2022/03/17 00:12:14;;;;;;;38.08;25.48;;;;;;;9.00;64.37;102137.22;4725276;29;120288;-90
2022/03/17 00:14:52;;;;;;;37.15;25.30;;;;;;;9.05;64.15;102141.47;4718963;29;122653;-90
2022/03/17 00:17:36;;;;;;;;;;;;;;;;;;;;;
2022/03/17 00:20:15;;;;;;;36.30;25.80;;;;;;;9.43;64.38;102192.34;4732269;29;123668;-90
2022/03/17 00:22:41;;;;;;;42.53;27.45;;;;;;;9.35;64.12;102181.88;4732026;29;119854;-91
2022/03/17 00:25:13;;;;;;;39.47;26.70;;;;;;;9.42;63.90;102181.81;4735603;29;121120;-91
2022/03/17 00:27:52;;;;;;;38.25;27.15;;;;;;;9.41;64.28;102180.25;4739147;29;120772;-88
2022/03/17 00:30:23;;;;;;;39.30;27.20;;;;;;;9.38;64.07;102178.31;4724154;29;121073;-88
2022/03/17 00:32:51;;;;;;;38.63;26.63;;;;;;;9.23;64.14;102158.53;4722149;29;121671;-88
2022/03/17 00:38:11;;;;;;;40.00;26.67;;;;;;;9.63;64.24;102225.44;4714732;29;119514;-88
2022/03/17 00:40:38;;;;;;;39.83;27.10;;;;;;;9.57;64.02;102223.56;4712195;29;122824;-88
2022/03/17 00:43:14;;;;;;;31.38;20.65;;;;;;;9.44;63.85;102184.91;4742930;29;122555;-88
2022/03/17 00:45:45;;;;;;;53.38;31.00;;;;;;;9.40;63.96;102176.75;4705262;29;121794;-88
2022/03/17 00:48:18;;;;;;;38.33;26.80;;;;;;;9.55;63.87;102196.56;4715502;29;122987;-88
2022/03/17 00:51:06;;;;;;;40.40;27.00;;;;;;;9.28;63.93;102154.56;4726423;29;119579;-88
2022/03/17 00:53:39;;;;;;;37.72;25.60;;;;;;;9.34;63.68;102153.72;4718390;29;121884;-88
2022/03/17 00:56:05;;;;;;;37.33;26.20;;;;;;;9.52;63.59;102168.03;4732269;29;121192;-88
2022/03/17 00:58:31;;;;;;;38.53;25.98;;;;;;;8.92;63.68;102095.44;4722919;29;121053;-88
2022/03/17 01:01:11;;;;;;;37.47;25.55;;;;;;;8.95;63.71;102095.78;4723367;29;122834;-88
2022/03/17 01:03:47;;;;;;;39.22;26.75;;;;;;;9.35;63.73;102151.75;4725908;29;119898;-88
2022/03/17 01:06:15;;;;;;;40.95;26.70;;;;;;;9.18;63.48;102137.81;4708937;29;122183;-89
2022/03/17 01:08:41;;;;;;;39.20;26.15;;;;;;;9.41;63.62;102161.09;4717645;29;123210;-88
2022/03/17 01:11:07;;;;;;;36.67;25.00;;;;;;;9.24;63.61;102127.22;4726059;29;119621;-88
2022/03/17 01:13:35;;;;;;;40.85;26.63;;;;;;;9.40;64.01;102148.56;4741149;29;123047;-88
2022/03/17 01:16:03;;;;;;;37.47;25.30;;;;;;;9.48;63.66;102164.53;4709264;29;123437;-87
2022/03/17 01:18:29;;;;;;;37.70;26.30;;;;;;;9.41;63.88;102134.47;4732860;29;120525;-88
2022/03/17 01:20:56;;;;;;;40.20;26.42;;;;;;;9.51;63.93;102138.31;4719097;29;122679;-89
2022/03/17 01:23:22;;;;;;;41.67;27.25;;;;;;;9.39;63.57;102127.84;4713070;29;123250;-88
2022/03/17 01:25:47;;;;;;;39.92;27.75;;;;;;;9.16;63.79;102096.38;4703813;29;122275;-88
2022/03/17 01:28:13;;;;;;;43.08;27.10;;;;;;;9.51;63.69;102130.09;4727330;29;120442;-88
2022/03/17 01:30:43;;;;;;;40.80;26.95;;;;;;;8.98;63.78;102053.94;4697320;29;119588;-88
2022/03/17 01:33:11;;;;;;;42.10;27.73;;;;;;;9.40;63.72;102108.25;4727826;29;122271;-88
2022/03/17 01:35:39;;;;;;;42.47;28.25;;;;;;;9.52;63.18;102117.94;4710341;29;123327;-88
2022/03/17 01:38:14;;;;;;;43.90;28.17;;;;;;;9.26;62.78;102069.31;4714839;29;119845;-88
2022/03/17 01:40:40;;;;;;;42.42;27.58;;;;;;;9.29;63.47;102073.97;4730146;29;119783;-88
2022/03/17 01:43:13;;;;;;;44.05;28.52;;;;;;;9.40;63.30;102102.00;4711322;29;122819;-88
2022/03/17 01:45:44;;;;;;;44.00;28.00;;;;;;;9.15;63.56;102070.19;4731994;29;119403;-89
2022/03/17 01:48:21;;;;;;;42.67;28.88;;;;;;;8.80;63.56;102013.84;4712017;29;123205;-88
2022/03/17 01:50:52;;;;;;;41.70;28.52;;;;;;;9.05;63.45;102045.66;4729053;29;119730;-88
2022/03/17 01:53:22;;;;;;;48.40;30.20;;;;;;;9.13;63.87;102052.63;4741346;29;120011;-88
2022/03/17 01:55:49;;;;;;;45.88;29.73;;;;;;;8.89;63.78;102018.84;4696679;29;122900;-89
2022/03/17 01:58:17;;;;;;;45.55;29.40;;;;;;;9.40;63.38;102091.06;4706488;29;120050;-88
2022/03/17 02:00:47;;;;;;;45.15;29.75;;;;;;;9.36;63.13;102087.59;4714575;29;122027;-87
2022/03/17 02:03:16;;;;;;;44.65;30.00;;;;;;;9.16;63.48;102055.31;4741083;29;123067;-88
2022/03/17 02:05:44;;;;;;;48.67;31.83;;;;;;;9.12;63.38;102040.88;4732569;29;121115;-88
2022/03/17 02:08:14;;;;;;;44.50;29.45;;;;;;;8.98;63.16;102015.63;4693686;29;123402;-88
2022/03/17 02:13:24;;;;;;;47.17;30.90;;;;;;;9.07;63.79;102024.91;4722778;29;121902;-88
2022/03/17 02:15:54;;;;;;;50.38;32.88;;;;;;;9.28;63.63;102045.81;4727339;29;122840;-88
2022/03/17 02:18:25;;;;;;;48.92;31.88;;;;;;;8.94;62.98;101993.75;4728984;29;120039;-87
2022/03/17 02:20:50;;;;;;;50.10;32.72;;;;;;;9.09;63.70;102003.38;4728997;29;121547;-88
2022/03/17 02:26:04;;;;;;;54.35;34.17;;;;;;;9.29;63.47;102041.91;4715327;29;119575;-89
2022/03/17 02:28:32;;;;;;;49.28;33.47;;;;;;;9.33;63.75;102048.09;4731856;29;122234;-89
2022/03/17 02:31:02;;;;;;;54.63;35.15;;;;;;;8.84;63.13;101975.50;4729009;29;119851;-89
2022/03/17 02:33:37;;;;;;;53.80;34.55;;;;;;;9.31;63.60;102044.22;4713094;29;121735;-88
2022/03/17 02:36:08;;;;;;;53.15;34.85;;;;;;;9.08;63.48;102001.06;4709834;29;123238;-88
2022/03/17 02:38:43;;;;;;;54.47;34.38;;;;;;;8.85;63.43;101966.09;4723694;29;119973;-88
2022/03/17 02:41:21;;;;;;;58.63;36.05;;;;;;;9.15;63.77;101998.22;4743250;29;119376;-88
2022/03/17 02:43:51;;;;;;;55.35;35.97;;;;;;;9.11;63.91;101992.81;4741932;29;120686;-88
2022/03/17 02:46:22;;;;;;;55.47;34.47;;;;;;;9.04;63.65;101981.94;4727991;29;119545;-88
2022/03/17 02:48:48;;;;;;;57.63;35.83;;;;;;;8.84;63.66;101940.72;4716587;29;122369;-89
2022/03/17 02:51:16;;;;;;;53.55;35.42;;;;;;;8.91;63.81;101946.09;4747444;29;120214;-88
2022/03/17 02:53:48;;;;;;;52.17;34.53;;;;;;;8.95;63.81;101946.06;4713964;29;122122;-89
2022/03/17 02:56:14;;;;;;;55.08;34.45;;;;;;;9.36;63.65;102003.47;4743823;29;120065;-88
2022/03/17 02:58:40;;;;;;;54.35;34.67;;;;;;;9.38;63.84;102011.28;4713050;29;119931;-89
2022/03/17 03:01:05;;;;;;;56.70;34.90;;;;;;;8.95;63.88;101937.06;4741472;29;119445;-89
2022/03/17 03:03:31;;;;;;;52.50;34.55;;;;;;;9.17;63.33;101958.31;4701780;29;122773;-88
2022/03/17 03:06:02;;;;;;;55.15;35.83;;;;;;;9.10;63.40;101944.72;4728253;29;119683;-88
2022/03/17 03:08:35;;;;;;;54.58;35.15;;;;;;;9.16;63.34;101953.25;4725646;29;122155;-89
2022/03/17 03:11:01;;;;;;;52.72;34.78;;;;;;;9.09;63.79;101940.44;4727186;29;122499;-88
2022/03/17 03:13:29;;;;;;;54.13;35.67;;;;;;;8.94;63.75;101911.66;4725144;29;119482;-88
2022/03/17 03:15:57;;;;;;;51.03;34.80;;;;;;;9.28;63.57;101968.38;4715647;29;123120;-89
2022/03/17 03:18:27;;;;;;;61.67;37.33;;;;;;;9.06;63.19;101913.88;4704286;29;119542;-88
2022/03/17 03:20:59;;;;;;;55.75;35.85;;;;;;;9.37;63.64;101963.16;4700951;29;120804;-89
2022/03/17 03:23:25;;;;;;;57.10;36.67;;;;;;;9.30;63.73;101957.78;4742111;29;120116;-89
2022/03/17 03:25:50;;;;;;;52.10;35.40;;;;;;;9.28;63.61;101949.97;4709251;29;120722;-88
2022/03/17 03:28:18;;;;;;;56.38;37.28;;;;;;;9.26;63.07;101935.16;4726110;29;122783;-88
2022/03/17 03:30:44;;;;;;;54.17;36.60;;;;;;;9.26;63.35;101944.16;4710674;29;122724;-88
2022/03/17 03:33:12;;;;;;;56.80;36.38;;;;;;;9.39;63.08;101958.81;4710391;29;119443;-88
2022/03/17 03:38:24;;;;;;;;;;;;;;;9.64;63.53;101974.94;4728578;29;119939;-88
2022/03/17 03:40:50;;;;;;;57.05;36.85;;;;;;;9.45;63.31;101951.69;4727954;29;119547;-89
2022/03/17 03:43:16;;;;;;;57.58;38.05;;;;;;;9.63;63.06;101964.38;4696682;29;123043;-89
2022/03/17 03:45:41;;;;;;;56.90;37.20;;;;;;;9.46;62.72;101930.56;4697490;29;120048;-88
2022/03/17 03:48:10;;;;;;;59.05;38.05;;;;;;;9.45;62.95;101923.53;4728761;29;119648;-89
2022/03/17 03:50:37;;;;;;;59.95;38.38;;;;;;;9.80;62.57;101971.59;4715627;29;123554;-90
2022/03/17 03:53:07;;;;;;;58.08;38.88;;;;;;;9.42;62.72;101903.22;4712763;29;120518;-88
2022/03/17 03:55:35;;;;;;;63.50;39.50;;;;;;;9.40;63.05;101883.69;4709267;29;122447;-89
2022/03/17 03:58:13;;;;;;;60.42;39.40;;;;;;;9.63;62.93;101913.09;4713289;29;119637;-89
2022/03/17 04:00:43;;;;;;;65.18;39.35;;;;;;;9.49;62.61;101881.22;4719250;29;121751;-88
2022/03/17 04:03:11;;;;;;;59.58;39.15;;;;;;;9.84;62.78;101929.22;4746096;29;120494;-88
2022/03/17 04:05:41;;;;;;;61.15;39.70;;;;;;;9.45;63.05;101846.84;4703074;29;119682;-88
2022/03/17 04:08:09;;;;;;;62.72;40.60;;;;;;;9.85;62.58;101913.56;4744925;29;119727;-89
2022/03/17 04:10:40;;;;;;;57.53;38.80;;;;;;;9.57;62.66;101862.72;4734668;29;120100;-89
2022/03/17 04:13:05;;;;;;;58.45;40.05;;;;;;;9.69;62.73;101878.56;4701431;29;119792;-88
2022/03/17 04:15:31;;;;;;;60.35;40.53;;;;;;;9.64;62.88;101856.34;4716336;29;120452;-89
2022/03/17 04:17:57;;;;;;;62.90;41.65;;;;;;;9.84;62.91;101890.88;4719440;29;122667;-88
2022/03/17 04:20:22;;;;;;;60.90;40.28;;;;;;;9.49;63.10;101828.41;4703274;29;121818;-89
2022/03/17 04:22:48;;;;;;;61.15;41.25;;;;;;;9.42;62.53;101809.34;4714761;29;123182;-89
2022/03/17 04:25:16;;;;;;;55.90;39.70;;;;;;;9.48;62.89;101818.66;4709699;29;119766;-89
2022/03/17 04:27:47;;;;;;;59.15;40.88;;;;;;;9.41;63.08;101799.56;4719043;29;122567;-88
2022/03/17 04:30:13;;;;;;;60.58;40.75;;;;;;;9.97;62.67;101893.03;4715229;29;120058;-88
2022/03/17 04:32:46;;;;;;;66.40;42.63;;;;;;;9.68;62.53;101829.66;4701174;29;119948;-89
2022/03/17 04:35:14;;;;;;;64.32;42.92;;;;;;;9.93;62.15;101856.66;4712843;29;122295;-88
2022/03/17 04:37:41;;;;;;;65.25;42.40;;;;;;;9.59;62.39;101780.91;4728565;29;122895;-88
2022/03/17 04:40:08;;;;;;;60.05;41.92;;;;;;;10.09;62.17;101871.28;4749093;29;119468;-88
2022/03/17 04:42:43;;;;;;;61.50;42.55;;;;;;;9.82;62.26;101830.22;4729931;29;123686;-88
2022/03/17 04:45:11;;;;;;;67.80;43.42;;;;;;;9.99;62.01;101836.59;4729453;29;119604;-88
2022/03/17 04:47:41;;;;;;;66.45;42.55;;;;;;;10.23;62.08;101853.06;4715731;29;122113;-87
2022/03/17 04:50:08;;;;;;;65.65;43.72;;;;;;;10.05;61.92;101820.44;4744615;29;123461;-88
2022/03/17 04:55:20;;;;;;;;;;;;;;;10.29;61.59;101854.91;4716029;29;122693;-88
2022/03/17 04:57:47;;;;;;;63.08;42.55;;;;;;;10.21;61.52;101839.00;4730201;29;120741;-88
2022/03/17 05:00:13;;;;;;;62.90;42.65;;;;;;;10.28;61.74;101845.13;4730334;29;119522;-89
2022/03/17 05:02:42;;;;;;;61.15;43.40;;;;;;;9.96;61.87;101792.81;4715349;29;123882;-88
2022/03/17 05:05:07;;;;;;;63.58;43.30;;;;;;;9.95;61.80;101783.03;4723809;29;119791;-88
2022/03/17 05:07:34;;;;;;;61.80;42.38;;;;;;;10.21;61.53;101822.56;4729727;29;121552;-88
2022/03/17 05:10:00;;;;;;;63.28;44.92;;;;;;;10.14;61.58;101807.72;4714502;29;122960;-88
2022/03/17 05:12:28;;;;;;;59.78;42.53;;;;;;;10.08;61.32;101803.16;4730294;29;119850;-89
2022/03/17 05:15:16;;;;;;;60.85;42.95;;;;;;;10.05;60.93;101793.81;4719450;29;119961;-88
2022/03/17 05:17:54;;;;;;;;;;;;;;;;;;;;;
2022/03/17 05:20:22;;;;;;;62.47;43.83;;;;;;;10.29;61.24;101832.19;4729319;29;119560;-89
2022/03/17 05:22:53;;;;;;;62.45;44.97;;;;;;;10.25;61.30;101810.31;4733662;29;119485;-89
2022/03/17 05:25:28;;;;;;;63.25;43.53;;;;;;;10.31;61.39;101813.34;4730667;29;123040;-88
2022/03/17 05:27:55;;;;;;;63.22;44.15;;;;;;;10.38;60.88;101827.69;4714525;29;121499;-89
2022/03/17 05:30:24;;;;;;;59.40;42.05;;;;;;;10.59;61.02;101850.41;4727712;29;122656;-88
2022/03/17 05:32:53;;;;;;;61.72;42.80;;;;;;;10.25;60.98;101802.09;4712502;29;119697;-89
2022/03/17 05:35:22;;;;;;;59.35;42.53;;;;;;;10.12;60.74;101760.75;4729067;29;119447;-89
2022/03/17 05:37:51;;;;;;;58.80;43.40;;;;;;;10.65;60.88;101846.00;4728516;29;122849;-89
2022/03/17 05:40:18;;;;;;;64.20;42.88;;;;;;;10.53;60.42;101819.19;4714999;29;120133;-88
2022/03/17 05:42:56;;;;;;;57.10;42.25;;;;;;;10.24;60.41;101764.13;4714885;29;122288;-88
2022/03/17 05:45:30;;;;;;;59.45;43.30;;;;;;;10.54;60.43;101804.28;4728272;29;122675;-89
2022/03/17 05:48:03;;;;;;;57.90;41.60;;;;;;;10.53;60.39;101792.53;4746820;29;119566;-88
2022/03/17 05:50:50;;;;;;;58.25;42.83;;;;;;;10.52;60.36;101801.19;4726957;29;123133;-88
2022/03/17 05:53:23;;;;;;;60.28;42.85;;;;;;;10.79;60.43;101833.94;4729173;29;119539;-88
2022/03/17 05:55:51;;;;;;;59.95;41.63;;;;;;;10.75;60.03;101814.81;4727323;29;121810;-88
2022/03/17 05:58:29;;;;;;;58.53;42.72;;;;;;;10.40;60.10;101762.19;4699182;29;122897;-88
2022/03/17 06:01:04;;;;;;;59.50;42.58;;;;;;;10.70;59.68;101807.88;4682873;29;119678;-88
2022/03/17 06:03:47;;;;;;;57.25;41.08;;;;;;;10.43;59.68;101761.38;4708275;29;122420;-88
2022/03/17 06:06:18;;;;;;;57.40;41.25;;;;;;;10.64;59.62;101795.03;4729184;29;120507;-88
2022/03/17 06:08:47;;;;;;;58.65;42.88;;;;;;;10.91;59.66;101842.34;4746890;29;120174;-88
2022/03/17 06:11:15;;;;;;;59.13;43.33;;;;;;;10.56;59.20;101760.72;4701375;29;123245;-88
2022/03/17 06:13:46;;;;;;;59.00;42.00;;;;;;;10.82;59.13;101795.44;4743612;29;120512;-88
2022/03/17 06:16:12;;;;;;;58.28;42.20;;;;;;;11.07;59.17;101831.38;4743515;29;120005;-88
2022/03/17 06:18:38;;;;;;;53.38;39.63;;;;;;;10.98;59.24;101806.47;4728322;29;122798;-88
2022/03/17 06:21:03;;;;;;;59.42;42.28;;;;;;;11.08;58.72;101823.91;4729135;29;119753;-88
2022/03/17 06:23:31;;;;;;;54.55;41.08;;;;;;;11.13;58.89;101828.16;4737659;29;120085;-88
2022/03/17 06:26:04;;;;;;;58.17;41.75;;;;;;;10.89;58.93;101798.06;4723817;29;120152;-88
2022/03/17 06:28:33;;;;;;;56.17;41.58;;;;;;;10.68;58.72;101749.88;4729733;29;119898;-88
2022/03/17 06:30:58;;;;;;;57.58;41.35;;;;;;;11.17;58.77;101817.84;4721476;29;122030;-87
2022/03/17 06:33:28;;;;;;;59.30;42.28;;;;;;;10.92;58.86;101779.97;4710212;29;120001;-88
2022/03/17 06:35:56;;;;;;;58.75;42.90;;;;;;;11.19;58.36;101820.94;4728263;29;122072;-88
2022/03/17 06:38:24;;;;;;;58.67;43.17;;;;;;;11.06;58.49;101796.88;4713985;29;122991;-88
2022/03/17 06:40:50;;;;;;;60.30;43.83;;;;;;;11.05;58.35;101770.63;4713395;29;119770;-88
2022/03/17 06:43:19;;;;;;;57.72;43.38;;;;;;;11.23;58.48;101788.69;4743428;29;122300;-88
2022/03/17 06:45:47;;;;;;;56.47;42.20;;;;;;;11.27;58.63;101800.34;4708451;29;123947;-89
2022/03/17 06:48:23;;;;;;;58.28;42.83;;;;;;;11.13;58.41;101774.00;4725408;29;119433;-88
2022/03/17 06:51:01;;;;;;;56.90;43.50;;;;;;;11.10;58.38;101758.34;4716971;29;121951;-89
2022/03/17 06:53:29;;;;;;;58.00;43.20;;;;;;;11.19;58.44;101772.28;4716830;29;122873;-88
2022/03/17 06:56:08;;;;;;;57.38;43.47;;;;;;;11.24;58.03;101762.75;4742273;29;119851;-88
2022/03/17 06:58:44;;;;;;;;;;;;;;;;;;;;;
2022/03/17 07:01:10;;;;;;;56.53;42.65;;;;;;;11.32;57.78;101777.84;4740250;29;119528;-89
2022/03/17 07:03:54;;;;;;;60.87;44.97;;;;;;;11.04;57.61;101724.38;4742428;29;119798;-89
2022/03/17 07:06:24;;;;;;;61.28;45.85;;;;;;;11.02;57.55;101733.03;4739602;29;120496;-88
2022/03/17 07:08:52;;;;;;;58.75;44.80;;;;;;;11.13;57.66;101729.28;4712398;29;119986;-88
2022/03/17 07:11:29;;;;;;;;;;;;;;;;;;;;;
2022/03/17 07:14:16;;;;;;;59.90;44.58;;;;;;;11.58;57.79;101804.31;4727082;29;122685;-89
2022/03/17 07:16:51;;;;;;;61.45;46.03;;;;;;;11.30;57.18;101755.53;4697439;29;120459;-88
2022/03/17 07:19:17;;;;;;;62.35;45.25;;;;;;;11.40;57.34;101764.75;4727656;29;120789;-88
2022/03/17 07:21:43;;;;;;;61.85;46.33;;;;;;;11.53;57.63;101788.34;4742661;29;119763;-88
2022/03/17 07:24:09;;;;;;;59.40;45.50;;;;;;;11.56;57.76;101784.72;4691969;29;122100;-88
2022/03/17 07:26:43;;;;;;;61.70;46.58;;;;;;;11.12;57.31;101719.47;4743348;29;120329;-88
2022/03/17 07:29:09;;;;;;;59.88;44.15;;;;;;;11.31;57.01;101735.88;4712789;29;119815;-88
2022/03/17 07:31:40;;;;;;;64.35;47.47;;;;;;;11.59;57.49;101772.09;4726658;29;122518;-88
2022/03/17 07:34:24;;;;;;;59.80;45.90;;;;;;;11.77;57.09;101801.91;4712206;29;122887;-88
2022/03/17 07:36:51;;;;;;;63.17;45.72;;;;;;;11.40;57.05;101746.28;4736436;29;119585;-88
2022/03/17 07:39:37;;;;;;;62.03;45.53;;;;;;;11.53;56.62;101766.34;4719730;29;121785;-88
2022/03/17 07:42:04;;;;;;;58.28;44.80;;;;;;;11.87;56.72;101815.41;4708323;29;119554;-87
2022/03/17 07:44:57;;;;;;;61.13;44.97;;;;;;;11.92;56.90;101825.13;4727083;29;122181;-88
2022/03/17 07:47:47;;;;;;;59.40;45.45;;;;;;;12.00;56.87;101823.72;4742184;29;120126;-88
2022/03/17 07:50:14;;;;;;;64.30;47.28;;;;;;;11.65;56.96;101760.16;4733349;29;120086;-88
2022/03/17 07:52:43;;;;;;;61.63;46.50;;;;;;;11.51;56.67;101744.03;4728524;29;122066;-88
2022/03/17 07:55:18;;;;;;;61.03;45.03;;;;;;;11.93;56.71;101804.66;4744068;29;120266;-88
2022/03/17 07:58:06;;;;;;;61.50;45.85;;;;;;;11.94;56.70;101792.47;4694516;29;120287;-87
2022/03/17 08:00:32;;;;;;;65.45;47.30;;;;;;;11.99;56.69;101811.16;4693503;29;121610;-87
2022/03/17 08:03:04;;;;;;;60.65;44.35;;;;;;;11.71;56.27;101762.41;4735242;29;120479;-88
2022/03/17 08:05:40;;;;;;;62.92;45.53;;;;;;;12.21;56.42;101834.16;4717805;29;122084;-88
2022/03/17 08:08:08;;;;;;;60.58;46.80;;;;;;;11.75;56.38;101757.56;4715027;29;123421;-88
2022/03/17 08:10:34;;;;;;;62.05;47.25;;;;;;;12.05;56.74;101806.69;4744320;29;119809;-88
2022/03/17 08:13:09;;;;;;;63.50;46.65;;;;;;;12.10;56.14;101806.19;4744356;29;121816;-87
2022/03/17 08:15:39;;;;;;;61.47;47.07;;;;;;;12.01;56.94;101802.50;4714362;29;123291;-88
2022/03/17 08:18:06;;;;;;;60.75;46.35;;;;;;;12.20;56.54;101835.38;4714485;29;119811;-88
2022/03/17 08:20:36;;;;;;;68.70;49.97;;;;;;;11.67;57.50;101752.25;4727919;29;122247;-88
2022/03/17 08:23:05;;;;;;;69.45;50.15;;;;;;;11.64;58.62;101758.63;4715638;29;123312;-88
2022/03/17 08:25:30;;;;;;;67.30;50.28;;;;;;;11.75;58.55;101780.34;4744793;29;119827;-88
2022/03/17 08:28:02;;;;;;;67.35;48.95;;;;;;;11.61;58.96;101764.22;4728593;29;122618;-88
2022/03/17 08:30:33;;;;;;;68.97;50.42;;;;;;;11.98;58.78;101828.88;4715543;29;119795;-88
2022/03/17 08:33:05;;;;;;;65.55;50.17;;;;;;;11.69;59.58;101771.06;4713790;29;122304;-88
2022/03/17 08:35:34;;;;;;;67.63;50.90;;;;;;;11.98;60.13;101815.13;4724686;29;121591;-88
2022/03/17 08:37:59;;;;;;;71.90;52.30;;;;;;;11.92;60.21;101814.13;4730189;29;120135;-89
2022/03/17 08:40:28;;;;;;;68.07;50.85;;;;;;;11.82;60.52;101793.16;4724307;29;120152;-89
2022/03/17 08:42:54;;;;;;;72.88;53.25;;;;;;;12.07;60.87;101842.81;4728578;29;123590;-89
2022/03/17 08:50:54;;;;;;;74.23;55.03;;;;;;;11.76;61.44;101814.88;4712896;29;119723;-89
2022/03/17 08:53:22;;;;;;;80.38;55.67;;;;;;;11.95;62.21;101846.25;4727487;29;122996;-89
2022/03/17 08:55:49;;;;;;;80.75;57.13;;;;;;;11.99;62.29;101861.44;4727306;29;120420;-88
2022/03/17 08:58:24;;;;;;;79.72;55.40;;;;;;;11.48;62.52;101786.09;4728852;29;119803;-88
2022/03/17 09:00:54;;;;;;;78.53;57.05;;;;;;;11.57;62.49;101802.75;4729954;29;119695;-89
2022/03/17 09:03:29;;;;;;;80.28;57.92;;;;;;;11.79;62.58;101846.25;4733017;29;120321;-88
2022/03/17 09:05:58;;;;;;;88.03;61.05;;;;;;;11.93;63.25;101865.91;4705079;29;120105;-89
2022/03/17 09:08:25;;;;;;;77.88;55.22;;;;;;;11.79;62.98;101849.75;4729927;29;121867;-89
2022/03/17 09:10:59;;;;;;;84.97;58.35;;;;;;;11.55;62.90;101820.88;4716063;29;120458;-89
2022/03/17 09:13:49;;;;;;;;;;;;;;;;;;;;;
2022/03/17 09:16:32;;;;;;;;;;;;;;;;;;;;;
2022/03/17 09:19:03;;;;;;;84.43;58.43;;;;;;;11.70;63.87;101855.06;4727813;29;119468;-88
2022/03/17 09:21:32;;;;;;;84.00;59.67;;;;;;;11.88;64.03;101880.19;4729847;29;119606;-89
2022/03/17 09:23:59;;;;;;;86.18;59.20;;;;;;;11.87;63.81;101886.13;4728435;29;122583;-89
2022/03/17 09:26:38;;;;;;;84.88;59.33;;;;;;;11.33;63.78;101806.88;4731025;29;119441;-88
2022/03/17 09:29:16;;;;;;;87.00;60.22;;;;;;;11.39;64.26;101821.66;4717451;29;122442;-88
2022/03/17 09:31:50;;;;;;;81.30;58.53;;;;;;;11.43;63.98;101830.59;4718549;29;123186;-89
2022/03/17 09:34:21;;;;;;;85.10;60.70;;;;;;;11.56;64.05;101845.19;4728986;29;121452;-88
2022/03/17 09:37:17;;;;;;;89.13;61.05;;;;;;;11.81;64.46;101883.09;4713812;29;121278;-88
2022/03/17 09:40:01;;;;;;;86.60;61.20;;;;;;;11.51;64.52;101848.44;4743752;29;120163;-89
2022/03/17 09:42:39;;;;;;;86.50;60.78;;;;;;;11.63;64.68;101878.00;4724986;29;121882;-88
2022/03/17 09:45:12;;;;;;;89.15;60.78;;;;;;;11.40;64.81;101847.94;4707427;29;119992;-88
2022/03/17 09:47:55;;;;;;;87.80;62.17;;;;;;;11.29;65.21;101830.91;4736313;29;119946;-89
2022/03/17 09:50:24;;;;;;;90.15;61.65;;;;;;;11.45;65.37;101869.41;4739085;29;122170;-88
2022/03/17 09:52:56;;;;;;;84.53;59.45;;;;;;;11.37;65.60;101866.03;4727205;29;123048;-89
2022/03/17 09:55:30;;;;;;;83.75;59.95;;;;;;;11.56;65.40;101900.13;4745141;29;120098;-89
2022/03/17 09:57:56;;;;;;;90.80;63.03;;;;;;;11.51;65.47;101900.66;4725927;29;123529;-89
2022/03/17 10:00:52;;;;;;;89.57;61.92;;;;;;;11.23;66.44;101868.31;4713711;29;119900;-88
2022/03/17 10:03:25;;;;;;;88.97;61.47;;;;;;;11.38;66.16;101899.78;4710582;29;122095;-88
2022/03/17 10:06:00;;;;;;;91.13;63.17;;;;;;;11.11;66.78;101861.50;4742372;29;122925;-89
2022/03/17 10:08:33;;;;;;;89.82;62.58;;;;;;;11.04;66.50;101862.44;4726548;29;119919;-89
2022/03/17 10:11:18;;;;;;;95.22;64.43;;;;;;;11.02;66.78;101866.81;4726977;29;122141;-89
2022/03/17 10:13:59;;;;;;;;;;;;;;;;;;;;;
2022/03/17 10:16:37;;;;;;;92.93;62.08;;;;;;;11.17;67.24;101897.50;4726968;29;120422;-88
2022/03/17 10:19:31;;;;;;;91.45;62.88;;;;;;;11.22;67.10;101888.75;4748018;29;120055;-88
2022/03/17 10:22:12;;;;;;;92.32;62.88;;;;;;;11.38;67.70;101905.28;4727303;29;120418;-89
2022/03/17 10:24:54;;;;;;;90.47;61.75;;;;;;;11.42;67.32;101921.69;4713750;29;123113;-89
2022/03/17 10:27:45;;;;;;;92.25;61.53;;;;;;;11.52;67.64;101932.44;4726877;29;122681;-89
2022/03/17 10:30:35;;;;;;;75.07;51.65;;;;;;;11.60;67.87;101933.84;4698162;29;119951;-89
2022/03/17 10:33:28;;;;;;;;;;;;;;;;;;;;;
2022/03/17 10:35:54;;;;;;;47.90;30.23;;;;;;;12.00;67.92;101972.22;4725241;29;122535;-88
2022/03/17 10:38:27;;;;;;;46.50;29.42;;;;;;;11.53;67.69;101897.47;4742143;29;120608;-89
2022/03/17 10:41:03;;;;;;;42.15;26.50;;;;;;;11.79;67.52;101934.97;4717532;29;123807;-89
2022/03/17 10:43:32;;;;;;;43.57;26.27;;;;;;;11.92;67.17;101955.13;4728976;29;120207;-89
2022/03/17 10:46:20;;;;;;;40.30;21.50;;;;;;;12.17;67.92;101987.53;4726839;29;121966;-89
2022/03/17 10:48:55;;;;;;;31.00;17.13;;;;;;;12.05;67.46;101968.94;4712771;29;123811;-89
2022/03/17 10:51:40;;;;;;;37.40;16.08;;;;;;;11.88;67.10;101923.41;4727719;29;120054;-89
2022/03/17 10:54:16;;;;;;;38.85;15.90;;;;;;;12.25;66.65;101979.88;4711934;29;122236;-88
2022/03/17 10:56:42;;;;;;;28.92;11.77;;;;;;;12.05;66.59;101935.94;4726952;29;123092;-89
2022/03/17 10:59:17;;;;;;;40.63;13.98;;;;;;;12.28;66.95;101970.75;4739793;29;120584;-88
2022/03/17 11:01:46;;;;;;;42.15;13.13;;;;;;;12.31;66.54;101955.38;4757791;29;122902;-88
2022/03/17 11:04:48;;;;;;;35.80;11.48;;;;;;;12.27;66.42;101947.97;4738701;29;121776;-88
2022/03/17 11:07:19;;;;;;;33.25;12.85;;;;;;;12.76;66.98;102002.94;4720454;29;122257;-88
2022/03/17 11:09:50;;;;;;;41.20;10.57;;;;;;;12.56;66.42;101955.53;4721373;29;123465;-88
2022/03/17 11:12:23;;;;;;;36.20;8.52;;;;;;;12.96;65.03;102013.84;4717332;29;121520;-87
2022/03/17 11:15:20;;;;;;;31.05;8.00;;;;;;;12.99;64.71;102006.69;4723225;29;121415;-87
2022/03/17 11:17:49;;;;;;;34.67;7.75;;;;;;;13.19;64.27;102048.69;4696480;29;123248;-88
2022/03/17 11:20:25;;;;;;;29.02;7.20;;;;;;;13.18;64.42;102052.63;4752565;29;120389;-88
2022/03/17 11:23:18;;;;;;;28.92;6.35;;;;;;;13.15;63.68;102026.72;4709935;29;122415;-88
2022/03/17 11:25:50;;;;;;;30.80;7.45;;;;;;;13.25;63.80;102057.97;4724834;29;122890;-87
2022/03/17 11:28:16;;;;;;;27.83;6.70;;;;;;;13.01;64.38;102015.28;4720666;29;120281;-87
2022/03/17 11:30:44;;;;;;;26.67;7.55;;;;;;;12.84;65.05;101995.28;4740260;29;120365;-87
2022/03/17 11:33:22;;;;;;;28.05;6.65;;;;;;;12.96;64.41;102007.56;4740384;29;119549;-87
2022/03/17 11:36:11;;;;;;;28.23;6.63;;;;;;;13.16;63.82;102036.50;4741819;29;122445;-88
2022/03/17 11:39:08;;;;;;;32.03;6.07;;;;;;;13.48;63.82;102088.03;4724926;29;123239;-89
2022/03/17 11:41:41;;;;;;;23.33;6.28;;;;;;;13.39;64.14;102078.84;4707902;29;119672;-88
2022/03/17 11:44:14;;;;;;;33.03;5.85;;;;;;;13.03;63.60;102021.94;4727445;29;119833;-88
2022/03/17 11:46:45;;;;;;;20.20;5.07;;;;;;;13.21;63.23;102058.06;4710879;29;123231;-88
2022/03/17 11:49:33;;;;;;;21.88;4.57;;;;;;;13.46;62.94;102108.97;4725661;29;120778;-88
2022/03/17 11:52:06;;;;;;;27.00;5.82;;;;;;;12.89;63.56;102036.84;4700417;29;122615;-88
2022/03/17 11:54:34;;;;;;;28.75;5.38;;;;;;;13.28;63.37;102097.66;4725578;29;119951;-87
2022/03/17 11:57:06;;;;;;;24.65;5.68;;;;;;;13.02;63.98;102058.94;4739451;29;122215;-88
2022/03/17 11:59:58;;;;;;;32.15;6.32;;;;;;;13.52;63.88;102126.53;4727307;29;121563;-87